createdAt,value
2018-12-22T00:00:28.894Z,2.35
2018-12-22T00:03:32.122Z,1.40
2018-12-22T00:06:35.497Z,1.40
2018-12-22T00:09:38.574Z,1.10
2018-12-22T00:12:41.563Z,1.17
2018-12-22T00:15:44.519Z,1.40
2018-12-22T00:18:47.541Z,1.00
2018-12-22T00:21:51.406Z,0.80
2018-12-22T00:24:54.412Z,1.00
2018-12-22T00:27:57.374Z,0.82
2018-12-22T00:31:00.473Z,1.13
2018-12-22T00:34:03.454Z,0.70
2018-12-22T00:37:27.503Z,1.00
2018-12-22T00:40:31.620Z,0.80
2018-12-22T00:43:34.761Z,1.05
2018-12-22T00:46:37.858Z,0.70
2018-12-22T00:49:40.868Z,0.93
2018-12-22T00:52:43.849Z,0.85
2018-12-22T00:55:46.885Z,1.00
2018-12-22T00:58:50.045Z,0.68
2018-12-22T01:01:53.025Z,0.70
2018-12-22T01:04:55.999Z,0.70
2018-12-22T01:07:59.005Z,0.60
2018-12-22T01:11:03.078Z,0.70
2018-12-22T01:14:06.090Z,0.80
2018-12-22T01:17:09.046Z,0.73
2018-12-22T01:20:12.118Z,0.60
2018-12-22T01:23:15.082Z,0.67
2018-12-22T01:26:18.082Z,0.50
2018-12-22T01:29:21.041Z,0.50
2018-12-22T01:32:24.167Z,0.60
2018-12-22T01:35:28.114Z,0.60
2018-12-22T01:38:31.366Z,0.62
2018-12-22T01:41:34.652Z,0.40
2018-12-22T01:44:37.976Z,0.75
2018-12-22T01:47:41.126Z,0.53
2018-12-22T01:50:45.298Z,0.60
2018-12-22T01:53:48.441Z,0.40
2018-12-22T01:56:51.781Z,0.50
2018-12-22T01:59:55.038Z,0.60
2018-12-22T02:02:58.586Z,0.40
2018-12-22T02:06:01.726Z,0.45
2018-12-22T02:09:07.014Z,0.50
2018-12-22T02:12:10.166Z,0.68
2018-12-22T02:15:13.412Z,0.53
2018-12-22T02:18:16.558Z,0.40
2018-12-22T02:21:19.790Z,0.30
2018-12-22T02:24:22.956Z,0.47
2018-12-22T02:27:26.150Z,0.40
2018-12-22T02:30:29.486Z,0.50
2018-12-22T02:33:32.634Z,0.67
2018-12-22T02:36:35.898Z,0.55
2018-12-22T02:39:39.037Z,0.60
2018-12-22T02:42:42.465Z,0.60
2018-12-22T02:45:45.643Z,0.40
2018-12-22T02:48:48.854Z,0.50
2018-12-22T02:51:52.022Z,0.98
2018-12-22T02:54:55.237Z,0.50
2018-12-22T02:57:58.503Z,0.30
2018-12-22T03:01:01.730Z,0.40
2018-12-22T03:04:04.907Z,0.50
2018-12-22T03:07:08.108Z,0.37
2018-12-22T03:10:11.373Z,0.40
2018-12-22T03:13:14.631Z,0.37
2018-12-22T03:16:17.779Z,0.40
2018-12-22T03:19:21.015Z,0.40
2018-12-22T03:22:24.274Z,0.40
2018-12-22T03:25:27.609Z,0.40
2018-12-22T03:28:30.810Z,0.47
2018-12-22T03:31:33.987Z,0.50
2018-12-22T03:34:37.150Z,0.50
2018-12-22T03:37:40.390Z,0.50
2018-12-22T03:40:43.550Z,0.50
2018-12-22T03:43:46.914Z,0.60
2018-12-22T03:46:50.142Z,0.43
2018-12-22T03:49:53.486Z,0.50
2018-12-22T03:52:56.633Z,0.50
2018-12-22T03:56:00.177Z,0.40
2018-12-22T03:59:04.147Z,0.50
2018-12-22T04:02:07.424Z,0.50
2018-12-22T04:05:10.702Z,0.60
2018-12-22T04:08:13.978Z,0.60
2018-12-22T04:11:17.170Z,0.80
2018-12-22T04:14:20.362Z,0.40
2018-12-22T04:17:23.562Z,0.40
2018-12-22T04:20:26.766Z,0.40
2018-12-22T04:23:30.306Z,0.50
2018-12-22T04:26:33.453Z,0.40
2018-12-22T04:29:36.651Z,0.80
2018-12-22T04:32:39.842Z,0.40
2018-12-22T04:35:43.038Z,0.30
2018-12-22T04:38:46.233Z,0.30
2018-12-22T04:41:49.430Z,0.50
2018-12-22T04:44:52.622Z,0.42
2018-12-22T04:47:55.818Z,0.40
2018-12-22T04:50:59.149Z,0.40
2018-12-22T04:54:02.390Z,0.40
2018-12-22T04:57:05.612Z,0.40
2018-12-22T05:00:10.036Z,0.40
2018-12-22T05:03:13.227Z,0.40
2018-12-22T05:06:16.423Z,0.50
2018-12-22T05:09:20.255Z,0.60
2018-12-22T05:12:23.428Z,0.40
2018-12-22T05:15:26.622Z,0.50
2018-12-22T05:18:29.817Z,0.80
2018-12-22T05:21:33.009Z,0.60
2018-12-22T05:24:36.210Z,0.50
2018-12-22T05:27:39.397Z,0.60
2018-12-22T05:30:42.593Z,0.67
2018-12-22T05:33:45.789Z,0.50
2018-12-22T05:36:48.985Z,0.50
2018-12-22T05:39:52.177Z,0.50
2018-12-22T05:42:55.377Z,0.50
2018-12-22T05:45:58.574Z,0.50
2018-12-22T05:49:01.765Z,0.57
2018-12-22T05:52:04.961Z,0.47
2018-12-22T05:55:08.160Z,0.50
2018-12-22T05:58:11.352Z,0.47
2018-12-22T06:01:14.546Z,0.53
2018-12-22T06:04:17.737Z,0.50
2018-12-22T06:07:20.937Z,0.47
2018-12-22T06:10:24.129Z,0.50
2018-12-22T06:13:28.533Z,0.60
2018-12-22T06:16:31.645Z,0.50
2018-12-22T06:19:34.846Z,0.60
2018-12-22T06:22:38.038Z,0.50
2018-12-22T06:25:41.210Z,0.60
2018-12-22T06:28:44.326Z,0.60
2018-12-22T06:31:52.249Z,0.80
2018-12-22T06:34:55.430Z,0.60
2018-12-22T06:37:58.622Z,0.53
2018-12-22T06:41:01.817Z,0.60
2018-12-22T06:44:05.013Z,0.50
2018-12-22T06:47:08.205Z,0.40
2018-12-22T06:50:11.405Z,0.60
2018-12-22T06:53:14.598Z,0.50
2018-12-22T06:56:19.022Z,0.80
2018-12-22T06:59:22.217Z,0.53
2018-12-22T07:02:25.512Z,0.50
2018-12-22T07:05:28.849Z,0.60
2018-12-22T07:08:32.034Z,0.50
2018-12-22T07:11:35.201Z,0.80
2018-12-22T07:14:38.498Z,0.62
2018-12-22T07:17:41.694Z,0.70
2018-12-22T07:20:44.922Z,0.63
2018-12-22T07:23:48.082Z,0.90
2018-12-22T07:26:51.430Z,0.80
2018-12-22T07:29:54.579Z,1.10
2018-12-22T07:32:57.805Z,0.80
2018-12-22T07:36:00.973Z,1.00
2018-12-22T07:39:06.598Z,1.10
2018-12-22T07:42:09.715Z,1.23
2018-12-22T07:45:13.053Z,1.10
2018-12-22T07:48:16.210Z,0.90
2018-12-22T07:51:19.473Z,0.80
2018-12-22T07:54:22.594Z,0.90
2018-12-22T07:57:25.822Z,0.90
2018-12-22T08:00:34.793Z,0.83
2018-12-22T08:03:34.266Z,0.70
2018-12-22T08:06:37.421Z,1.07
2018-12-22T08:09:40.651Z,1.27
2018-12-22T08:12:43.799Z,1.20
2018-12-22T08:15:47.211Z,1.33
2018-12-22T08:18:50.409Z,1.37
2018-12-22T08:21:53.465Z,1.17
2018-12-22T08:24:56.598Z,1.33
2018-12-22T08:27:59.937Z,1.50
2018-12-22T08:31:03.090Z,1.10
2018-12-22T08:34:06.309Z,1.60
2018-12-22T08:37:09.478Z,1.43
2018-12-22T08:40:12.974Z,1.20
2018-12-22T08:43:16.177Z,1.10
2018-12-22T08:46:19.402Z,1.10
2018-12-22T08:49:22.566Z,1.20
2018-12-22T08:52:25.792Z,1.10
2018-12-22T08:55:28.955Z,2.13
2018-12-22T08:58:32.178Z,1.10
2018-12-22T09:01:35.358Z,1.40
2018-12-22T09:04:38.542Z,1.07
2018-12-22T09:07:42.010Z,1.17
2018-12-22T09:10:45.133Z,1.10
2018-12-22T09:13:48.363Z,1.47
2018-12-22T09:16:51.525Z,2.60
2018-12-22T09:19:54.869Z,0.90
2018-12-22T09:22:58.034Z,0.97
2018-12-22T09:26:01.242Z,0.97
2018-12-22T09:29:05.534Z,1.10
2018-12-22T09:32:08.894Z,1.40
2018-12-22T09:35:18.687Z,1.13
2018-12-22T09:38:21.912Z,1.00
2018-12-22T09:41:25.070Z,1.47
2018-12-22T09:44:28.414Z,1.10
2018-12-22T09:47:31.569Z,2.10
2018-12-22T09:50:34.790Z,1.23
2018-12-22T09:53:37.955Z,1.27
2018-12-22T09:56:41.265Z,1.10
2018-12-22T09:59:44.449Z,1.30
2018-12-22T10:02:47.702Z,1.07
2018-12-22T10:05:50.860Z,1.33
2018-12-22T10:08:54.202Z,1.17
2018-12-22T10:11:57.350Z,1.10
2018-12-22T10:15:00.586Z,1.30
2018-12-22T10:18:03.737Z,1.10
2018-12-22T10:21:06.978Z,1.07
2018-12-22T10:24:10.136Z,1.47
2018-12-22T10:27:13.473Z,1.50
2018-12-22T10:30:17.238Z,1.00
2018-12-22T10:33:20.470Z,1.40
2018-12-22T10:36:23.626Z,1.93
2018-12-22T10:39:26.827Z,1.13
2018-12-22T10:42:30.032Z,1.60
2018-12-22T10:45:33.831Z,1.10
2018-12-22T10:48:37.026Z,1.10
2018-12-22T10:51:40.225Z,1.10
2018-12-22T10:54:43.454Z,1.00
2018-12-22T10:57:46.614Z,1.17
2018-12-22T11:00:49.846Z,1.13
2018-12-22T11:03:53.015Z,1.27
2018-12-22T11:06:56.227Z,1.17
2018-12-22T11:09:59.386Z,1.20
2018-12-22T11:13:02.689Z,1.17
2018-12-22T11:16:05.886Z,1.17
2018-12-22T11:19:09.186Z,0.80
2018-12-22T11:22:12.374Z,0.90
2018-12-22T11:25:22.293Z,0.93
2018-12-22T11:28:25.522Z,1.13
2018-12-22T11:31:34.964Z,0.90
2018-12-22T11:34:33.958Z,1.10
2018-12-22T11:37:37.155Z,1.00
2018-12-22T11:40:40.354Z,1.00
2018-12-22T11:43:43.548Z,1.10
2018-12-22T11:46:47.050Z,1.13
2018-12-22T11:49:50.254Z,1.10
2018-12-22T11:52:53.535Z,1.07
2018-12-22T11:55:56.747Z,1.10
2018-12-22T11:58:59.917Z,1.23
2018-12-22T12:02:09.670Z,0.97
2018-12-22T12:05:10.421Z,1.10
2018-12-22T12:08:15.581Z,1.00
2018-12-22T12:11:18.761Z,1.10
2018-12-22T12:14:21.953Z,0.90
2018-12-22T12:18:34.982Z,1.20
2018-12-22T12:21:38.164Z,1.37
2018-12-22T12:24:41.357Z,1.73
2018-12-22T12:27:44.565Z,1.00
2018-12-22T12:30:47.762Z,1.00
2018-12-22T12:33:50.958Z,1.00
2018-12-22T12:36:54.170Z,1.20
2018-12-22T12:39:57.349Z,1.20
2018-12-22T12:43:00.542Z,1.20
2018-12-22T12:46:03.749Z,1.20
2018-12-22T12:49:06.938Z,1.60
2018-12-22T12:52:10.131Z,1.50
2018-12-22T12:55:13.325Z,1.60
2018-12-22T12:58:16.521Z,1.20
2018-12-22T13:01:19.718Z,1.50
2018-12-22T13:04:22.914Z,1.43
2018-12-22T13:07:26.108Z,3.10
2018-12-22T13:10:29.297Z,2.00
2018-12-22T13:13:46.659Z,1.40
2018-12-22T13:16:49.822Z,1.57
2018-12-22T13:19:53.047Z,1.40
2018-12-22T13:22:56.210Z,1.32
2018-12-22T13:25:59.401Z,1.30
2018-12-22T13:29:02.646Z,1.50
2018-12-22T13:32:09.572Z,1.40
2018-12-22T13:35:11.186Z,1.80
2018-12-22T13:38:14.337Z,2.03
2018-12-22T13:41:17.562Z,1.30
2018-12-22T13:44:20.841Z,1.80
2018-12-22T13:47:24.033Z,1.80
2018-12-22T13:50:27.708Z,1.93
2018-12-22T13:53:30.938Z,1.80
2018-12-22T13:56:34.478Z,1.87
2018-12-22T13:59:37.622Z,2.50
2018-12-22T14:02:41.658Z,2.07
2018-12-22T14:05:45.469Z,2.10
2018-12-22T14:08:48.677Z,2.13
2018-12-22T14:11:51.847Z,2.27
2018-12-22T14:14:55.042Z,2.10
2018-12-22T14:18:20.357Z,1.90
2018-12-22T14:21:23.548Z,2.20
2018-12-22T14:24:36.810Z,2.10
2018-12-22T14:27:40.079Z,2.30
2018-12-22T14:30:43.321Z,2.25
2018-12-22T14:33:46.462Z,2.20
2018-12-22T14:36:49.723Z,2.23
2018-12-22T14:39:52.849Z,2.00
2018-12-22T14:42:56.076Z,2.20
2018-12-22T14:45:59.241Z,1.97
2018-12-22T14:49:02.438Z,2.40
2018-12-22T14:52:06.250Z,2.43
2018-12-22T14:55:10.468Z,2.10
2018-12-22T14:58:18.026Z,2.07
2018-12-22T15:01:21.170Z,1.93
2018-12-22T15:04:24.350Z,2.33
2018-12-22T15:07:27.522Z,2.27
2018-12-22T15:10:30.748Z,2.47
2018-12-22T15:13:34.042Z,2.17
2018-12-22T15:16:37.236Z,2.40
2018-12-22T15:19:40.430Z,1.80
2018-12-22T15:22:43.654Z,2.50
2018-12-22T15:25:46.822Z,2.13
2018-12-22T15:28:50.030Z,2.50
2018-12-22T15:31:53.215Z,2.37
2018-12-22T15:34:56.406Z,2.27
2018-12-22T15:37:59.599Z,2.73
2018-12-22T15:41:02.898Z,2.57
2018-12-22T15:44:06.096Z,2.60
2018-12-22T15:47:09.286Z,2.73
2018-12-22T15:50:14.903Z,2.33
2018-12-22T15:53:18.035Z,2.60
2018-12-22T15:56:21.226Z,2.57
2018-12-22T15:59:24.425Z,2.37
2018-12-22T16:02:30.774Z,2.77
2018-12-22T16:05:33.914Z,2.73
2018-12-22T16:08:37.110Z,2.60
2018-12-22T16:11:40.305Z,2.63
2018-12-22T16:14:43.502Z,2.97
2018-12-22T16:17:46.698Z,3.00
2018-12-22T16:20:49.891Z,3.30
2018-12-22T16:23:53.086Z,2.93
2018-12-22T16:26:56.282Z,3.27
2018-12-22T16:29:59.474Z,3.20
2018-12-22T16:33:02.670Z,3.63
2018-12-22T16:36:05.866Z,3.53
2018-12-22T16:39:09.061Z,3.37
2018-12-22T16:42:12.234Z,3.90
2018-12-22T16:45:15.968Z,3.40
2018-12-22T16:48:21.489Z,3.90
2018-12-22T16:51:24.631Z,4.70
2018-12-22T16:54:27.802Z,4.63
2018-12-22T16:57:31.682Z,4.13
2018-12-22T17:00:39.344Z,4.17
2018-12-22T17:03:42.690Z,3.57
2018-12-22T17:06:45.909Z,3.50
2018-12-22T17:09:49.105Z,3.83
2018-12-22T17:12:52.297Z,2.97
2018-12-22T17:15:58.053Z,3.77
2018-12-22T17:19:01.261Z,3.43
2018-12-22T17:22:28.506Z,3.63
2018-12-22T17:25:39.226Z,3.67
2018-12-22T17:28:42.482Z,3.97
2018-12-22T17:31:45.670Z,3.90
2018-12-22T17:34:48.866Z,3.97
2018-12-22T17:37:52.474Z,3.53
2018-12-22T17:40:57.149Z,4.13
2018-12-22T17:44:00.294Z,4.10
2018-12-22T17:47:03.638Z,3.50
2018-12-22T17:50:06.790Z,3.50
2018-12-22T17:53:11.042Z,4.40
2018-12-22T17:56:14.198Z,3.90
2018-12-22T17:59:19.098Z,3.70
2018-12-22T18:02:22.329Z,4.27
2018-12-22T18:05:25.882Z,4.03
2018-12-22T18:08:29.041Z,3.50
2018-12-22T18:11:33.794Z,3.50
2018-12-22T18:14:36.957Z,3.73
2018-12-22T18:17:40.201Z,3.43
2018-12-22T18:20:43.450Z,5.90
2018-12-22T18:23:46.894Z,20.00
2018-12-22T18:26:51.009Z,8.77
2018-12-22T18:29:55.250Z,16.47
2018-12-22T18:32:58.906Z,22.03
2018-12-22T18:36:03.574Z,9.70
2018-12-22T18:39:07.492Z,8.10
2018-12-22T18:42:11.353Z,4.93
2018-12-22T18:45:14.771Z,4.27
2018-12-22T18:48:18.237Z,4.50
2018-12-22T18:51:21.909Z,4.70
2018-12-22T18:54:25.582Z,4.50
2018-12-22T18:57:29.265Z,4.67
2018-12-22T19:00:33.795Z,5.27
2018-12-22T19:03:44.530Z,5.17
2018-12-22T19:06:43.050Z,4.23
2018-12-22T19:09:48.394Z,4.87
2018-12-22T19:12:51.731Z,5.37
2018-12-22T19:15:55.127Z,4.90
2018-12-22T19:18:58.654Z,4.73
2018-12-22T19:22:02.037Z,5.23
2018-12-22T19:25:05.859Z,6.20
2018-12-22T19:28:09.335Z,6.03
2018-12-22T19:31:13.000Z,6.30
2018-12-22T19:34:16.989Z,5.80
2018-12-22T19:37:20.270Z,6.47
2018-12-22T19:40:24.037Z,6.40
2018-12-22T19:43:27.582Z,5.77
2018-12-22T19:46:30.921Z,6.23
2018-12-22T19:49:34.190Z,7.00
2018-12-22T19:52:37.575Z,7.10
2018-12-22T19:55:40.722Z,7.40
2018-12-22T19:58:44.070Z,7.90
2018-12-22T20:01:47.193Z,7.00
2018-12-22T20:04:50.337Z,7.17
2018-12-22T20:07:53.485Z,7.07
2018-12-22T20:10:57.992Z,7.43
2018-12-22T20:14:01.365Z,6.87
2018-12-22T20:17:05.214Z,7.93
2018-12-22T20:20:09.293Z,7.27
2018-12-22T20:23:12.486Z,7.53
2018-12-22T20:26:15.755Z,7.43
2018-12-22T20:29:19.089Z,7.90
2018-12-22T20:32:22.142Z,7.57
2018-12-22T20:35:25.383Z,8.03
2018-12-22T20:38:28.530Z,8.20
2018-12-22T20:41:31.882Z,7.67
2018-12-22T20:44:35.021Z,8.53
2018-12-22T20:47:38.431Z,7.67
2018-12-22T20:50:41.594Z,7.73
2018-12-22T20:53:45.087Z,7.70
2018-12-22T20:56:48.417Z,7.90
2018-12-22T20:59:51.818Z,8.50
2018-12-22T21:05:03.429Z,8.37
2018-12-22T21:08:06.962Z,8.13
2018-12-22T21:11:10.197Z,7.60
2018-12-22T21:14:13.326Z,7.73
2018-12-22T21:17:16.506Z,8.20
2018-12-22T21:20:19.790Z,9.60
2018-12-22T21:23:23.011Z,10.67
2018-12-22T21:26:26.197Z,9.23
2018-12-22T21:29:29.502Z,10.87
2018-12-22T21:32:32.793Z,10.13
2018-12-22T21:35:36.188Z,10.37
2018-12-22T21:38:39.386Z,10.80
2018-12-22T21:41:42.585Z,11.67
2018-12-22T21:44:45.877Z,10.80
2018-12-22T21:47:49.101Z,10.77
2018-12-22T21:50:52.289Z,9.93
2018-12-22T21:53:56.245Z,10.07
2018-12-22T21:56:59.593Z,9.87
2018-12-22T22:00:02.774Z,8.80
2018-12-22T22:03:06.223Z,9.67
2018-12-22T22:06:09.451Z,10.63
2018-12-22T22:09:12.640Z,9.50
2018-12-22T22:12:15.627Z,9.43
2018-12-22T22:15:18.605Z,10.77
2018-12-22T22:18:21.871Z,10.53
2018-12-22T22:21:25.201Z,11.40
2018-12-22T22:24:28.555Z,11.23
2018-12-22T22:27:31.701Z,10.83
2018-12-22T22:30:34.714Z,10.70
2018-12-22T22:33:37.743Z,10.53
2018-12-22T22:36:40.834Z,10.27
2018-12-22T22:39:43.903Z,9.83
2018-12-22T22:42:46.921Z,9.47
2018-12-22T22:45:49.990Z,10.17
2018-12-22T22:48:53.535Z,10.90
2018-12-22T22:51:56.722Z,10.40
2018-12-22T22:54:59.906Z,11.23
2018-12-22T22:58:02.862Z,10.40
2018-12-22T23:01:05.867Z,10.17
2018-12-22T23:04:08.831Z,10.63
2018-12-22T23:07:11.861Z,10.60
2018-12-22T23:10:14.831Z,10.23
2018-12-22T23:13:17.878Z,11.40
2018-12-22T23:16:20.934Z,11.97
2018-12-22T23:19:24.159Z,12.47
2018-12-22T23:22:27.215Z,11.93
2018-12-22T23:25:31.544Z,11.80
2018-12-22T23:28:36.330Z,12.77
2018-12-22T23:31:39.558Z,11.90
2018-12-22T23:34:43.709Z,12.27
2018-12-22T23:37:46.774Z,12.30
2018-12-22T23:40:49.768Z,11.33
2018-12-22T23:43:52.847Z,11.57
2018-12-22T23:46:55.806Z,11.53
2018-12-22T23:49:58.760Z,10.87
2018-12-22T23:53:01.718Z,11.60
2018-12-22T23:56:04.698Z,11.37
2018-12-22T23:59:07.722Z,11.27
